createdAt,value
2023-03-11T00:03:31.594Z,3.89
2023-03-11T00:08:35.719Z,3.88
2023-03-11T00:13:39.314Z,3.95
2023-03-11T00:18:42.136Z,3.94
2023-03-11T00:23:46.409Z,3.89
2023-03-11T00:28:49.564Z,3.98
2023-03-11T00:33:52.499Z,4.08
2023-03-11T00:38:56.655Z,4.01
2023-03-11T00:43:59.431Z,3.98
2023-03-11T00:49:02.286Z,4.01
2023-03-11T00:54:06.707Z,4.18
2023-03-11T00:59:09.739Z,4.06
2023-03-11T01:04:12.640Z,4.05
2023-03-11T01:09:16.851Z,3.80
2023-03-11T01:14:19.765Z,3.86
2023-03-11T01:19:22.538Z,4.05
2023-03-11T01:24:26.658Z,3.96
2023-03-11T01:29:29.449Z,3.64
2023-03-11T01:34:33.504Z,3.54
2023-03-11T01:39:37.574Z,3.97
2023-03-11T01:44:40.331Z,3.98
2023-03-11T01:49:43.588Z,3.75
2023-03-11T01:54:49.599Z,3.64
2023-03-11T01:59:59.347Z,3.79
2023-03-11T02:05:03.991Z,3.30
2023-03-11T02:10:10.588Z,3.76
2023-03-11T02:15:14.347Z,3.58
2023-03-11T02:20:28.509Z,3.30
2023-03-11T02:25:40.304Z,3.52
2023-03-11T02:30:45.751Z,3.21
2023-03-11T02:35:48.587Z,3.48
2023-03-11T02:40:55.600Z,3.48
2023-03-11T02:46:02.364Z,3.46
2023-03-11T02:51:06.092Z,3.50
2023-03-11T02:56:10.193Z,3.45
2023-03-11T03:01:14.462Z,3.57
2023-03-11T03:06:20.420Z,3.77
2023-03-11T03:11:25.501Z,3.50
2023-03-11T03:16:29.977Z,3.24
2023-03-11T03:21:32.975Z,3.03
2023-03-11T03:26:36.692Z,3.09
2023-03-11T03:31:41.574Z,3.52
2023-03-11T03:36:44.778Z,3.77
2023-03-11T03:41:47.733Z,3.36
2023-03-11T03:46:52.694Z,3.79
2023-03-11T03:51:55.836Z,3.35
2023-03-11T03:57:05.274Z,3.21
2023-03-11T04:02:13.464Z,3.45
2023-03-11T04:07:16.747Z,3.31
2023-03-11T04:12:19.740Z,3.17
2023-03-11T04:17:24.330Z,3.62
2023-03-11T04:22:29.320Z,3.33
2023-03-11T04:27:32.502Z,3.43
2023-03-11T04:32:37.501Z,3.28
2023-03-11T04:37:40.779Z,3.36
2023-03-11T04:42:43.746Z,3.13
2023-03-11T04:47:49.886Z,3.46
2023-03-11T04:52:53.282Z,2.77
2023-03-11T04:57:56.345Z,2.56
2023-03-11T05:03:02.007Z,2.91
2023-03-11T05:08:06.108Z,2.54
2023-03-11T05:13:10.341Z,2.38
2023-03-11T05:18:17.058Z,2.08
2023-03-11T05:23:20.597Z,2.26
2023-03-11T05:28:23.626Z,2.31
2023-03-11T05:33:35.215Z,2.24
2023-03-11T05:38:39.408Z,2.39
2023-03-11T05:43:42.263Z,2.02
2023-03-11T05:48:46.670Z,2.48
2023-03-11T05:53:50.277Z,2.55
2023-03-11T05:59:01.155Z,2.08
2023-03-11T06:04:08.841Z,2.28
2023-03-11T06:09:13.851Z,2.55
2023-03-11T06:14:18.106Z,2.80
2023-03-11T06:19:25.958Z,2.31
2023-03-11T06:24:28.920Z,2.84
2023-03-11T06:29:32.086Z,2.60
2023-03-11T06:34:37.542Z,4.18
2023-03-11T06:39:40.734Z,4.72
2023-03-11T06:44:44.952Z,6.54
2023-03-11T06:49:51.225Z,6.72
2023-03-11T06:54:54.573Z,6.52
2023-03-11T06:59:57.660Z,7.61
2023-03-11T07:05:03.212Z,8.23
2023-03-11T07:10:07.649Z,9.06
2023-03-11T07:15:12.517Z,8.46
2023-03-11T07:20:18.943Z,10.07
2023-03-11T07:25:21.968Z,10.62
2023-03-11T07:30:24.799Z,10.35
2023-03-11T07:35:28.998Z,10.27
2023-03-11T07:40:32.182Z,10.54
2023-03-11T07:45:35.049Z,10.12
2023-03-11T07:50:39.180Z,7.65
2023-03-11T07:55:42.153Z,6.28
2023-03-11T08:00:44.894Z,5.76
2023-03-11T08:05:49.344Z,6.14
2023-03-11T08:10:52.119Z,5.47
2023-03-11T08:15:54.871Z,5.71
2023-03-11T08:20:59.298Z,5.73
2023-03-11T08:26:04.761Z,5.79
2023-03-11T08:31:14.267Z,5.71
2023-03-11T08:36:19.691Z,5.81
2023-03-11T08:41:22.411Z,6.53
2023-03-11T08:46:27.571Z,6.54
2023-03-11T08:51:33.776Z,6.26
2023-03-11T08:56:36.511Z,6.42
2023-03-11T09:01:39.263Z,5.83
2023-03-11T09:06:45.304Z,6.03
2023-03-11T09:11:48.265Z,5.79
2023-03-11T09:16:51.037Z,6.22
2023-03-11T09:21:55.203Z,6.44
2023-03-11T09:26:57.977Z,6.98
2023-03-11T09:32:00.929Z,6.37
2023-03-11T09:37:05.036Z,6.27
2023-03-11T09:42:20.080Z,7.13
2023-03-11T09:47:42.600Z,6.81
2023-03-11T09:52:56.458Z,7.71
2023-03-11T09:58:03.007Z,6.73
2023-03-11T10:03:14.057Z,7.41
2023-03-11T10:08:26.405Z,6.96
2023-03-11T10:13:36.288Z,7.47
2023-03-11T10:19:03.211Z,7.16
2023-03-11T10:24:18.983Z,6.72
2023-03-11T10:29:27.487Z,6.67
2023-03-11T10:34:38.243Z,7.68
2023-03-11T10:39:42.477Z,6.75
2023-03-11T10:44:45.397Z,7.84
2023-03-11T10:49:48.197Z,8.47
2023-03-11T10:55:02.846Z,7.82
2023-03-11T11:00:12.335Z,8.07
2023-03-11T11:05:30.010Z,8.49
2023-03-11T11:10:36.886Z,8.32
2023-03-11T11:15:42.316Z,8.34
2023-03-11T11:20:56.187Z,8.64
2023-03-11T11:26:04.574Z,8.76
2023-03-11T11:31:19.884Z,8.49
2023-03-11T11:36:26.897Z,7.62
2023-03-11T11:41:34.813Z,8.78
2023-03-11T11:46:40.841Z,8.96
2023-03-11T11:51:48.204Z,8.43
2023-03-11T11:56:52.367Z,8.78
2023-03-11T12:02:05.074Z,8.26
2023-03-11T12:07:19.629Z,7.73
2023-03-11T12:12:31.320Z,7.95
2023-03-11T12:17:38.278Z,8.42
2023-03-11T12:23:05.650Z,9.29
2023-03-11T12:28:19.895Z,8.88
2023-03-11T12:33:32.115Z,8.71
2023-03-11T12:38:36.748Z,8.38
2023-03-11T12:44:29.755Z,8.11
2023-03-11T12:49:34.246Z,9.24
2023-03-11T12:54:39.492Z,9.94
2023-03-11T13:00:12.368Z,10.13
2023-03-11T13:05:23.827Z,10.11
2023-03-11T13:10:40.062Z,9.83
2023-03-11T13:15:44.255Z,9.24
2023-03-11T13:20:59.176Z,9.17
2023-03-11T13:26:30.487Z,9.23
2023-03-11T13:31:46.296Z,9.60
2023-03-11T13:37:05.696Z,8.42
2023-03-11T13:42:18.492Z,9.16
2023-03-11T13:47:24.449Z,8.62
2023-03-11T13:52:32.438Z,8.07
2023-03-11T13:57:36.973Z,8.41
2023-03-11T14:02:46.540Z,8.44
2023-03-11T14:07:49.286Z,8.95
2023-03-11T14:12:52.424Z,8.30
2023-03-11T14:18:26.059Z,8.78
2023-03-11T14:23:32.395Z,9.60
2023-03-11T14:28:38.875Z,9.68
2023-03-11T14:33:42.995Z,8.54
2023-03-11T14:38:47.675Z,8.40
2023-03-11T14:43:54.570Z,8.76
2023-03-11T14:49:01.720Z,8.87
2023-03-11T14:54:09.326Z,8.97
2023-03-11T14:59:16.726Z,9.57
2023-03-11T15:04:31.433Z,9.40
2023-03-11T15:09:34.580Z,8.81
2023-03-11T15:14:49.394Z,8.84
2023-03-11T15:19:53.781Z,9.32
2023-03-11T15:24:58.881Z,9.58
2023-03-11T15:30:03.770Z,9.18
2023-03-11T15:35:17.753Z,10.21
2023-03-11T15:40:30.065Z,9.73
2023-03-11T15:45:38.182Z,9.75
2023-03-11T15:50:53.619Z,9.30
2023-03-11T15:56:06.884Z,8.84
2023-03-11T16:01:10.842Z,8.21
2023-03-11T16:06:14.961Z,7.65
2023-03-11T16:11:18.778Z,7.58
2023-03-11T16:16:22.341Z,8.54
2023-03-11T16:21:34.144Z,6.87
2023-03-11T16:26:37.080Z,7.02
2023-03-11T16:31:39.864Z,7.07
2023-03-11T16:36:43.959Z,6.72
2023-03-11T16:41:46.730Z,6.09
2023-03-11T16:46:49.574Z,6.76
2023-03-11T16:51:53.750Z,6.65
2023-03-11T16:56:56.635Z,6.60
2023-03-11T17:01:59.567Z,6.01
2023-03-11T17:07:03.796Z,5.62
2023-03-11T17:12:07.600Z,5.96
2023-03-11T17:17:10.436Z,5.42
2023-03-11T17:22:15.357Z,5.47
2023-03-11T17:27:18.110Z,5.95
2023-03-11T17:32:21.508Z,5.44
2023-03-11T17:37:26.025Z,5.23
2023-03-11T17:42:28.888Z,4.70
2023-03-11T17:47:33.182Z,5.14
2023-03-11T17:52:37.289Z,5.06
2023-03-11T17:57:45.525Z,5.09
2023-03-11T18:02:51.214Z,5.24
2023-03-11T18:07:55.415Z,5.23
2023-03-11T18:12:58.176Z,5.12
2023-03-11T18:18:01.216Z,5.09
2023-03-11T18:23:05.911Z,4.84
2023-03-11T18:28:08.656Z,5.07
2023-03-11T18:33:11.609Z,5.13
2023-03-11T18:38:15.972Z,4.77
2023-03-11T18:43:18.762Z,5.60
2023-03-11T18:48:21.509Z,5.40
2023-03-11T18:53:25.827Z,5.43
2023-03-11T18:58:28.942Z,5.07
2023-03-11T19:03:31.726Z,5.14
2023-03-11T19:08:35.882Z,5.53
2023-03-11T19:13:46.956Z,4.93
2023-03-11T19:18:51.344Z,5.41
2023-03-11T19:23:56.493Z,5.01
2023-03-11T19:28:59.294Z,4.80
2023-03-11T19:34:02.075Z,4.71
2023-03-11T19:39:06.500Z,4.98
2023-03-11T19:44:09.255Z,4.92
2023-03-11T19:49:12.116Z,5.32
2023-03-11T19:54:17.119Z,5.14
2023-03-11T19:59:19.873Z,4.95
2023-03-11T20:04:22.676Z,5.49
2023-03-11T20:09:27.023Z,5.70
2023-03-11T20:14:32.175Z,6.39
2023-03-11T20:19:34.999Z,6.33
2023-03-11T20:24:39.620Z,6.15
2023-03-11T20:29:42.452Z,6.54
2023-03-11T20:34:45.308Z,6.51
2023-03-11T20:39:49.625Z,6.99
2023-03-11T20:44:52.753Z,6.73
2023-03-11T20:49:56.912Z,7.07
2023-03-11T20:55:01.233Z,6.48
2023-03-11T21:00:08.151Z,6.66
2023-03-11T21:05:12.570Z,6.99
2023-03-11T21:10:17.433Z,6.60
2023-03-11T21:15:20.502Z,6.67
2023-03-11T21:20:23.380Z,7.27
2023-03-11T21:25:28.498Z,6.60
2023-03-11T21:30:31.252Z,6.16
2023-03-11T21:35:34.337Z,6.39
2023-03-11T21:40:38.639Z,6.09
2023-03-11T21:45:42.827Z,5.70
2023-03-11T21:50:45.723Z,5.74
2023-03-11T21:55:51.878Z,6.38
2023-03-11T22:00:54.786Z,5.38
2023-03-11T22:05:58.477Z,6.20
2023-03-11T22:11:03.043Z,6.34
2023-03-11T22:16:07.867Z,6.16
2023-03-11T22:21:11.097Z,6.69
2023-03-11T22:26:16.005Z,6.93
2023-03-11T22:31:19.252Z,7.06
2023-03-11T22:36:22.104Z,6.84
2023-03-11T22:41:26.199Z,6.08
2023-03-11T22:46:30.701Z,6.78
2023-03-11T22:51:34.641Z,6.54
2023-03-11T22:56:38.978Z,6.33
2023-03-11T23:01:41.699Z,6.16
2023-03-11T23:06:44.482Z,5.79
2023-03-11T23:11:48.650Z,5.94
2023-03-11T23:16:51.449Z,5.85
2023-03-11T23:21:54.169Z,6.32
2023-03-11T23:26:58.857Z,5.86
2023-03-11T23:32:01.619Z,4.66
2023-03-11T23:37:05.555Z,4.86
2023-03-11T23:42:24.545Z,5.52
2023-03-11T23:47:28.643Z,5.33
2023-03-11T23:52:31.421Z,4.87
2023-03-11T23:57:36.988Z,4.86
